sensor_id;sensor_type;location;lat;lon;timestamp;temperature;humidity
10443;DHT22;5269;51.146;16.986;2023-07-31T00:01:36;16.80;99.90
10443;DHT22;5269;51.146;16.986;2023-07-31T00:04:03;16.80;99.90
10443;DHT22;5269;51.146;16.986;2023-07-31T00:06:32;16.90;99.90
10443;DHT22;5269;51.146;16.986;2023-07-31T00:09:00;16.90;99.90
10443;DHT22;5269;51.146;16.986;2023-07-31T00:11:26;16.90;99.90
10443;DHT22;5269;51.146;16.986;2023-07-31T00:13:54;16.80;99.90
10443;DHT22;5269;51.146;16.986;2023-07-31T00:16:22;16.80;99.90
10443;DHT22;5269;51.146;16.986;2023-07-31T00:18:50;16.80;99.90
10443;DHT22;5269;51.146;16.986;2023-07-31T00:21:17;16.80;99.90
10443;DHT22;5269;51.146;16.986;2023-07-31T00:23:44;16.70;99.90
10443;DHT22;5269;51.146;16.986;2023-07-31T00:26:11;16.70;99.90
10443;DHT22;5269;51.146;16.986;2023-07-31T00:28:37;16.70;99.90
10443;DHT22;5269;51.146;16.986;2023-07-31T00:31:06;16.70;99.90
10443;DHT22;5269;51.146;16.986;2023-07-31T00:33:34;16.60;99.90
10443;DHT22;5269;51.146;16.986;2023-07-31T00:36:03;16.70;99.90
10443;DHT22;5269;51.146;16.986;2023-07-31T00:38:33;16.70;99.90
10443;DHT22;5269;51.146;16.986;2023-07-31T00:41:00;16.60;99.90
10443;DHT22;5269;51.146;16.986;2023-07-31T00:43:27;16.70;99.90
10443;DHT22;5269;51.146;16.986;2023-07-31T00:45:53;16.60;99.90
10443;DHT22;5269;51.146;16.986;2023-07-31T00:48:21;16.60;99.90
10443;DHT22;5269;51.146;16.986;2023-07-31T00:50:48;16.70;99.90
10443;DHT22;5269;51.146;16.986;2023-07-31T00:53:16;16.70;99.90
10443;DHT22;5269;51.146;16.986;2023-07-31T00:55:43;16.60;99.90
10443;DHT22;5269;51.146;16.986;2023-07-31T00:58:11;16.70;99.90
10443;DHT22;5269;51.146;16.986;2023-07-31T01:00:37;16.60;99.90
10443;DHT22;5269;51.146;16.986;2023-07-31T01:03:03;16.60;99.90
10443;DHT22;5269;51.146;16.986;2023-07-31T01:05:39;16.60;99.90
10443;DHT22;5269;51.146;16.986;2023-07-31T01:08:15;16.60;99.90
10443;DHT22;5269;51.146;16.986;2023-07-31T01:10:51;16.50;99.90
10443;DHT22;5269;51.146;16.986;2023-07-31T01:13:21;16.50;99.90
10443;DHT22;5269;51.146;16.986;2023-07-31T01:15:48;16.50;99.90
10443;DHT22;5269;51.146;16.986;2023-07-31T01:18:15;16.50;99.90
10443;DHT22;5269;51.146;16.986;2023-07-31T01:20:42;16.50;99.90
10443;DHT22;5269;51.146;16.986;2023-07-31T01:23:42;16.60;99.90
10443;DHT22;5269;51.146;16.986;2023-07-31T01:26:19;16.50;99.90
10443;DHT22;5269;51.146;16.986;2023-07-31T01:28:55;16.50;99.90
10443;DHT22;5269;51.146;16.986;2023-07-31T01:31:24;16.50;99.90
10443;DHT22;5269;51.146;16.986;2023-07-31T01:33:54;16.60;99.90
10443;DHT22;5269;51.146;16.986;2023-07-31T01:36:23;16.50;99.90
10443;DHT22;5269;51.146;16.986;2023-07-31T01:38:50;16.50;99.90
10443;DHT22;5269;51.146;16.986;2023-07-31T01:41:18;16.50;99.90
10443;DHT22;5269;51.146;16.986;2023-07-31T01:43:46;16.50;99.90
10443;DHT22;5269;51.146;16.986;2023-07-31T01:46:12;16.50;99.90
10443;DHT22;5269;51.146;16.986;2023-07-31T01:48:39;16.50;99.90
10443;DHT22;5269;51.146;16.986;2023-07-31T01:51:06;16.50;99.90
10443;DHT22;5269;51.146;16.986;2023-07-31T01:53:33;16.50;99.90
10443;DHT22;5269;51.146;16.986;2023-07-31T01:56:00;16.60;99.90
10443;DHT22;5269;51.146;16.986;2023-07-31T01:58:28;16.70;99.90
10443;DHT22;5269;51.146;16.986;2023-07-31T02:00:55;16.70;99.90
10443;DHT22;5269;51.146;16.986;2023-07-31T02:03:23;16.70;99.90
10443;DHT22;5269;51.146;16.986;2023-07-31T02:05:50;16.70;99.90
10443;DHT22;5269;51.146;16.986;2023-07-31T02:08:17;16.60;99.90
10443;DHT22;5269;51.146;16.986;2023-07-31T02:10:44;16.60;99.90
10443;DHT22;5269;51.146;16.986;2023-07-31T02:13:11;16.60;99.90
10443;DHT22;5269;51.146;16.986;2023-07-31T02:15:39;16.50;99.90
10443;DHT22;5269;51.146;16.986;2023-07-31T02:18:08;16.50;99.90
10443;DHT22;5269;51.146;16.986;2023-07-31T02:20:35;16.40;99.90
10443;DHT22;5269;51.146;16.986;2023-07-31T02:23:02;16.40;99.90
10443;DHT22;5269;51.146;16.986;2023-07-31T02:25:28;16.50;99.90
10443;DHT22;5269;51.146;16.986;2023-07-31T02:27:55;16.50;99.90
10443;DHT22;5269;51.146;16.986;2023-07-31T02:30:22;16.40;99.90
10443;DHT22;5269;51.146;16.986;2023-07-31T02:32:50;16.50;99.90
10443;DHT22;5269;51.146;16.986;2023-07-31T02:35:17;16.50;99.90
10443;DHT22;5269;51.146;16.986;2023-07-31T02:37:44;16.60;99.90
10443;DHT22;5269;51.146;16.986;2023-07-31T02:40:12;16.50;99.90
10443;DHT22;5269;51.146;16.986;2023-07-31T02:42:39;16.40;99.90
10443;DHT22;5269;51.146;16.986;2023-07-31T02:45:07;16.40;99.90
10443;DHT22;5269;51.146;16.986;2023-07-31T02:47:34;16.30;99.90
10443;DHT22;5269;51.146;16.986;2023-07-31T02:50:07;16.30;99.90
10443;DHT22;5269;51.146;16.986;2023-07-31T02:52:34;16.20;99.90
10443;DHT22;5269;51.146;16.986;2023-07-31T02:55:01;16.20;99.90
10443;DHT22;5269;51.146;16.986;2023-07-31T02:57:28;16.20;99.90
10443;DHT22;5269;51.146;16.986;2023-07-31T02:59:55;16.10;99.90
10443;DHT22;5269;51.146;16.986;2023-07-31T03:02:22;16.10;99.90
10443;DHT22;5269;51.146;16.986;2023-07-31T03:04:49;16.00;99.90
10443;DHT22;5269;51.146;16.986;2023-07-31T03:07:17;16.00;99.90
10443;DHT22;5269;51.146;16.986;2023-07-31T03:09:44;16.00;99.90
10443;DHT22;5269;51.146;16.986;2023-07-31T03:12:11;16.10;99.90
10443;DHT22;5269;51.146;16.986;2023-07-31T03:14:40;16.00;99.90
10443;DHT22;5269;51.146;16.986;2023-07-31T03:17:07;16.00;99.90
10443;DHT22;5269;51.146;16.986;2023-07-31T03:19:34;16.00;99.90
10443;DHT22;5269;51.146;16.986;2023-07-31T03:22:01;16.00;99.90
10443;DHT22;5269;51.146;16.986;2023-07-31T03:24:29;16.00;99.90
10443;DHT22;5269;51.146;16.986;2023-07-31T03:26:56;15.90;99.90
10443;DHT22;5269;51.146;16.986;2023-07-31T03:29:23;15.90;99.90
10443;DHT22;5269;51.146;16.986;2023-07-31T03:31:50;16.00;99.90
10443;DHT22;5269;51.146;16.986;2023-07-31T03:34:17;16.00;99.90
10443;DHT22;5269;51.146;16.986;2023-07-31T03:36:47;16.00;99.90
10443;DHT22;5269;51.146;16.986;2023-07-31T03:39:13;16.00;99.90
10443;DHT22;5269;51.146;16.986;2023-07-31T03:41:42;16.00;99.90
10443;DHT22;5269;51.146;16.986;2023-07-31T03:44:09;16.00;99.90
10443;DHT22;5269;51.146;16.986;2023-07-31T03:46:37;16.10;99.90
10443;DHT22;5269;51.146;16.986;2023-07-31T03:49:07;16.00;99.90
10443;DHT22;5269;51.146;16.986;2023-07-31T03:51:34;16.00;99.90
10443;DHT22;5269;51.146;16.986;2023-07-31T03:54:01;16.10;99.90
10443;DHT22;5269;51.146;16.986;2023-07-31T03:56:28;16.00;99.90
10443;DHT22;5269;51.146;16.986;2023-07-31T03:58:57;16.00;99.90
10443;DHT22;5269;51.146;16.986;2023-07-31T04:01:26;16.00;99.90
10443;DHT22;5269;51.146;16.986;2023-07-31T04:03:53;16.00;99.90
10443;DHT22;5269;51.146;16.986;2023-07-31T04:06:19;16.00;99.90
10443;DHT22;5269;51.146;16.986;2023-07-31T04:08:46;16.10;99.90
10443;DHT22;5269;51.146;16.986;2023-07-31T04:11:13;16.10;99.90
10443;DHT22;5269;51.146;16.986;2023-07-31T04:13:40;16.00;99.90
10443;DHT22;5269;51.146;16.986;2023-07-31T04:16:09;16.00;99.90
10443;DHT22;5269;51.146;16.986;2023-07-31T04:18:35;16.10;99.90
10443;DHT22;5269;51.146;16.986;2023-07-31T04:21:02;16.10;99.90
10443;DHT22;5269;51.146;16.986;2023-07-31T04:23:29;16.10;99.90
10443;DHT22;5269;51.146;16.986;2023-07-31T04:25:56;16.00;99.90
10443;DHT22;5269;51.146;16.986;2023-07-31T04:28:23;16.10;99.90
10443;DHT22;5269;51.146;16.986;2023-07-31T04:30:51;16.10;99.90
10443;DHT22;5269;51.146;16.986;2023-07-31T04:33:20;16.20;99.90
10443;DHT22;5269;51.146;16.986;2023-07-31T04:35:50;16.20;99.90
10443;DHT22;5269;51.146;16.986;2023-07-31T04:38:18;16.40;99.90
10443;DHT22;5269;51.146;16.986;2023-07-31T04:40:47;16.30;99.90
10443;DHT22;5269;51.146;16.986;2023-07-31T04:43:14;16.40;99.90
10443;DHT22;5269;51.146;16.986;2023-07-31T04:45:44;16.50;99.90
10443;DHT22;5269;51.146;16.986;2023-07-31T04:48:12;16.70;99.90
10443;DHT22;5269;51.146;16.986;2023-07-31T04:50:41;16.80;99.90
10443;DHT22;5269;51.146;16.986;2023-07-31T04:53:07;16.80;99.90
10443;DHT22;5269;51.146;16.986;2023-07-31T04:55:34;16.70;99.90
10443;DHT22;5269;51.146;16.986;2023-07-31T04:58:01;16.80;99.90
10443;DHT22;5269;51.146;16.986;2023-07-31T05:00:28;16.80;99.90
10443;DHT22;5269;51.146;16.986;2023-07-31T05:02:55;16.90;99.90
10443;DHT22;5269;51.146;16.986;2023-07-31T05:05:23;16.90;99.90
10443;DHT22;5269;51.146;16.986;2023-07-31T05:07:52;16.90;99.90
10443;DHT22;5269;51.146;16.986;2023-07-31T05:10:18;17.00;99.90
10443;DHT22;5269;51.146;16.986;2023-07-31T05:12:45;17.10;99.90
10443;DHT22;5269;51.146;16.986;2023-07-31T05:15:12;17.00;99.90
10443;DHT22;5269;51.146;16.986;2023-07-31T05:17:39;17.00;99.90
10443;DHT22;5269;51.146;16.986;2023-07-31T05:20:07;17.10;99.90
10443;DHT22;5269;51.146;16.986;2023-07-31T05:22:34;17.10;99.90
10443;DHT22;5269;51.146;16.986;2023-07-31T05:25:08;17.20;99.90
10443;DHT22;5269;51.146;16.986;2023-07-31T05:27:35;17.30;99.90
10443;DHT22;5269;51.146;16.986;2023-07-31T05:30:02;17.40;99.90
10443;DHT22;5269;51.146;16.986;2023-07-31T05:32:29;17.40;99.90
10443;DHT22;5269;51.146;16.986;2023-07-31T05:34:56;17.40;99.90
10443;DHT22;5269;51.146;16.986;2023-07-31T05:37:23;17.50;99.90
10443;DHT22;5269;51.146;16.986;2023-07-31T05:39:50;17.50;99.90
10443;DHT22;5269;51.146;16.986;2023-07-31T05:42:19;17.60;99.90
10443;DHT22;5269;51.146;16.986;2023-07-31T05:44:46;17.70;99.90
10443;DHT22;5269;51.146;16.986;2023-07-31T05:47:12;17.80;99.90
10443;DHT22;5269;51.146;16.986;2023-07-31T05:49:39;17.70;99.90
10443;DHT22;5269;51.146;16.986;2023-07-31T05:52:07;17.80;99.90
10443;DHT22;5269;51.146;16.986;2023-07-31T05:54:34;17.90;99.90
10443;DHT22;5269;51.146;16.986;2023-07-31T05:57:00;17.90;99.90
10443;DHT22;5269;51.146;16.986;2023-07-31T05:59:29;18.00;99.90
10443;DHT22;5269;51.146;16.986;2023-07-31T06:01:58;18.00;97.50
10443;DHT22;5269;51.146;16.986;2023-07-31T06:04:25;18.10;99.90
10443;DHT22;5269;51.146;16.986;2023-07-31T06:06:52;18.10;1.00
10443;DHT22;5269;51.146;16.986;2023-07-31T06:09:19;18.10;1.00
10443;DHT22;5269;51.146;16.986;2023-07-31T06:11:49;18.10;1.00
10443;DHT22;5269;51.146;16.986;2023-07-31T06:14:16;18.30;30.50
10443;DHT22;5269;51.146;16.986;2023-07-31T06:16:45;18.40;1.00
10443;DHT22;5269;51.146;16.986;2023-07-31T06:19:12;18.50;1.00
10443;DHT22;5269;51.146;16.986;2023-07-31T06:21:40;18.50;1.00
10443;DHT22;5269;51.146;16.986;2023-07-31T06:24:09;18.50;1.00
10443;DHT22;5269;51.146;16.986;2023-07-31T06:26:37;18.70;1.00
10443;DHT22;5269;51.146;16.986;2023-07-31T06:29:09;18.60;1.00
10443;DHT22;5269;51.146;16.986;2023-07-31T06:31:36;18.70;1.00
10443;DHT22;5269;51.146;16.986;2023-07-31T06:34:04;18.70;1.00
10443;DHT22;5269;51.146;16.986;2023-07-31T06:36:31;18.80;99.90
10443;DHT22;5269;51.146;16.986;2023-07-31T06:38:57;18.90;1.00
10443;DHT22;5269;51.146;16.986;2023-07-31T06:41:24;19.00;99.90
10443;DHT22;5269;51.146;16.986;2023-07-31T06:43:51;19.20;1.00
10443;DHT22;5269;51.146;16.986;2023-07-31T06:46:18;19.40;99.90
10443;DHT22;5269;51.146;16.986;2023-07-31T06:48:47;19.30;50.90
10443;DHT22;5269;51.146;16.986;2023-07-31T06:51:15;19.30;1.00
10443;DHT22;5269;51.146;16.986;2023-07-31T06:53:42;19.50;99.90
10443;DHT22;5269;51.146;16.986;2023-07-31T06:56:10;19.40;99.90
10443;DHT22;5269;51.146;16.986;2023-07-31T06:58:37;19.40;1.00
10443;DHT22;5269;51.146;16.986;2023-07-31T07:01:04;19.60;96.90
10443;DHT22;5269;51.146;16.986;2023-07-31T07:03:31;19.70;1.00
10443;DHT22;5269;51.146;16.986;2023-07-31T07:06:00;19.60;1.00
10443;DHT22;5269;51.146;16.986;2023-07-31T07:08:29;19.80;99.90
10443;DHT22;5269;51.146;16.986;2023-07-31T07:10:55;19.70;99.90
10443;DHT22;5269;51.146;16.986;2023-07-31T07:13:31;19.70;99.90
10443;DHT22;5269;51.146;16.986;2023-07-31T07:15:58;19.80;99.90
10443;DHT22;5269;51.146;16.986;2023-07-31T07:18:25;19.70;99.90
10443;DHT22;5269;51.146;16.986;2023-07-31T07:20:53;19.70;99.90
10443;DHT22;5269;51.146;16.986;2023-07-31T07:23:22;19.70;1.00
10443;DHT22;5269;51.146;16.986;2023-07-31T07:25:51;19.90;1.00
10443;DHT22;5269;51.146;16.986;2023-07-31T07:28:18;19.90;1.00
10443;DHT22;5269;51.146;16.986;2023-07-31T07:30:44;19.90;1.00
10443;DHT22;5269;51.146;16.986;2023-07-31T07:33:11;19.90;1.00
10443;DHT22;5269;51.146;16.986;2023-07-31T07:35:39;19.90;1.00
10443;DHT22;5269;51.146;16.986;2023-07-31T07:38:05;19.90;99.90
10443;DHT22;5269;51.146;16.986;2023-07-31T07:40:32;19.90;99.90
10443;DHT22;5269;51.146;16.986;2023-07-31T07:43:00;20.00;99.90
10443;DHT22;5269;51.146;16.986;2023-07-31T07:45:27;20.20;99.90
10443;DHT22;5269;51.146;16.986;2023-07-31T07:47:54;20.20;1.00
10443;DHT22;5269;51.146;16.986;2023-07-31T07:50:21;20.20;99.90
10443;DHT22;5269;51.146;16.986;2023-07-31T07:52:48;20.60;99.90
10443;DHT22;5269;51.146;16.986;2023-07-31T07:55:15;20.80;1.00
10443;DHT22;5269;51.146;16.986;2023-07-31T07:57:42;20.90;1.00
10443;DHT22;5269;51.146;16.986;2023-07-31T08:00:12;21.00;1.00
10443;DHT22;5269;51.146;16.986;2023-07-31T08:02:39;21.00;1.00
10443;DHT22;5269;51.146;16.986;2023-07-31T08:05:07;21.10;99.90
10443;DHT22;5269;51.146;16.986;2023-07-31T08:07:34;21.20;99.90
10443;DHT22;5269;51.146;16.986;2023-07-31T08:10:01;21.20;99.90
10443;DHT22;5269;51.146;16.986;2023-07-31T08:12:28;21.40;99.90
10443;DHT22;5269;51.146;16.986;2023-07-31T08:14:55;21.50;1.00
10443;DHT22;5269;51.146;16.986;2023-07-31T08:17:24;21.70;99.90
10443;DHT22;5269;51.146;16.986;2023-07-31T08:19:51;21.60;99.90
10443;DHT22;5269;51.146;16.986;2023-07-31T08:22:17;21.80;28.10
10443;DHT22;5269;51.146;16.986;2023-07-31T08:24:44;21.80;1.00
10443;DHT22;5269;51.146;16.986;2023-07-31T08:27:11;21.90;1.00
10443;DHT22;5269;51.146;16.986;2023-07-31T08:29:38;21.90;1.00
10443;DHT22;5269;51.146;16.986;2023-07-31T08:32:05;22.00;1.00
10443;DHT22;5269;51.146;16.986;2023-07-31T08:34:34;21.70;1.00
10443;DHT22;5269;51.146;16.986;2023-07-31T08:37:02;21.70;1.00
10443;DHT22;5269;51.146;16.986;2023-07-31T08:39:29;21.60;2.10
10443;DHT22;5269;51.146;16.986;2023-07-31T08:41:58;21.60;1.00
10443;DHT22;5269;51.146;16.986;2023-07-31T08:44:25;21.40;1.00
10443;DHT22;5269;51.146;16.986;2023-07-31T08:46:53;21.50;99.90
10443;DHT22;5269;51.146;16.986;2023-07-31T08:49:20;21.40;5.40
10443;DHT22;5269;51.146;16.986;2023-07-31T08:51:50;21.40;99.90
10443;DHT22;5269;51.146;16.986;2023-07-31T08:54:20;21.20;99.90
10443;DHT22;5269;51.146;16.986;2023-07-31T08:56:48;21.20;99.90
10443;DHT22;5269;51.146;16.986;2023-07-31T08:59:15;21.10;70.60
10443;DHT22;5269;51.146;16.986;2023-07-31T09:01:50;20.90;16.60
10443;DHT22;5269;51.146;16.986;2023-07-31T09:04:20;20.80;99.90
10443;DHT22;5269;51.146;16.986;2023-07-31T09:06:49;20.80;99.90
10443;DHT22;5269;51.146;16.986;2023-07-31T09:09:18;20.60;99.90
10443;DHT22;5269;51.146;16.986;2023-07-31T09:11:46;20.70;99.90
10443;DHT22;5269;51.146;16.986;2023-07-31T09:14:17;20.70;1.00
10443;DHT22;5269;51.146;16.986;2023-07-31T09:16:54;20.80;99.90
10443;DHT22;5269;51.146;16.986;2023-07-31T09:19:29;20.90;99.90
10443;DHT22;5269;51.146;16.986;2023-07-31T09:21:56;20.80;99.90
10443;DHT22;5269;51.146;16.986;2023-07-31T09:24:27;20.90;99.90
10443;DHT22;5269;51.146;16.986;2023-07-31T09:26:56;21.10;99.90
10443;DHT22;5269;51.146;16.986;2023-07-31T09:29:24;20.90;99.90
10443;DHT22;5269;51.146;16.986;2023-07-31T09:31:52;20.70;99.90
10443;DHT22;5269;51.146;16.986;2023-07-31T09:34:20;20.60;99.90
10443;DHT22;5269;51.146;16.986;2023-07-31T09:36:48;20.60;99.90
10443;DHT22;5269;51.146;16.986;2023-07-31T09:39:17;20.30;99.90
10443;DHT22;5269;51.146;16.986;2023-07-31T09:41:54;20.40;99.90
10443;DHT22;5269;51.146;16.986;2023-07-31T09:44:21;20.60;1.00
10443;DHT22;5269;51.146;16.986;2023-07-31T09:46:48;20.50;99.90
10443;DHT22;5269;51.146;16.986;2023-07-31T09:49:15;20.50;99.60
10443;DHT22;5269;51.146;16.986;2023-07-31T09:51:45;20.40;99.90
10443;DHT22;5269;51.146;16.986;2023-07-31T09:54:12;20.50;99.90
10443;DHT22;5269;51.146;16.986;2023-07-31T09:56:44;20.50;99.90
10443;DHT22;5269;51.146;16.986;2023-07-31T09:59:14;20.60;99.90
10443;DHT22;5269;51.146;16.986;2023-07-31T10:01:42;20.60;99.90
10443;DHT22;5269;51.146;16.986;2023-07-31T10:04:09;20.60;99.90
10443;DHT22;5269;51.146;16.986;2023-07-31T10:06:37;20.70;99.90
10443;DHT22;5269;51.146;16.986;2023-07-31T10:09:06;20.60;99.90
10443;DHT22;5269;51.146;16.986;2023-07-31T10:11:38;20.50;99.90
10443;DHT22;5269;51.146;16.986;2023-07-31T10:14:09;20.40;99.90
10443;DHT22;5269;51.146;16.986;2023-07-31T10:16:39;20.30;99.90
10443;DHT22;5269;51.146;16.986;2023-07-31T10:19:07;20.30;99.90
10443;DHT22;5269;51.146;16.986;2023-07-31T10:21:36;20.40;99.90
10443;DHT22;5269;51.146;16.986;2023-07-31T10:24:04;20.40;99.90
10443;DHT22;5269;51.146;16.986;2023-07-31T10:26:32;20.20;99.90
10443;DHT22;5269;51.146;16.986;2023-07-31T10:28:59;20.20;99.90
10443;DHT22;5269;51.146;16.986;2023-07-31T10:31:27;20.30;99.90
10443;DHT22;5269;51.146;16.986;2023-07-31T10:33:58;20.20;99.90
10443;DHT22;5269;51.146;16.986;2023-07-31T10:36:26;20.30;99.90
10443;DHT22;5269;51.146;16.986;2023-07-31T10:38:57;20.10;99.90
10443;DHT22;5269;51.146;16.986;2023-07-31T10:41:30;20.10;99.90
10443;DHT22;5269;51.146;16.986;2023-07-31T10:43:58;20.30;99.90
10443;DHT22;5269;51.146;16.986;2023-07-31T10:46:25;20.30;99.90
10443;DHT22;5269;51.146;16.986;2023-07-31T10:49:02;20.40;99.90
10443;DHT22;5269;51.146;16.986;2023-07-31T10:51:35;20.30;99.90
10443;DHT22;5269;51.146;16.986;2023-07-31T10:54:12;20.40;99.90
10443;DHT22;5269;51.146;16.986;2023-07-31T10:56:39;20.60;99.90
10443;DHT22;5269;51.146;16.986;2023-07-31T10:59:06;20.60;99.90
10443;DHT22;5269;51.146;16.986;2023-07-31T11:01:50;20.60;99.90
10443;DHT22;5269;51.146;16.986;2023-07-31T11:04:23;20.60;99.90
10443;DHT22;5269;51.146;16.986;2023-07-31T11:06:57;20.60;99.90
10443;DHT22;5269;51.146;16.986;2023-07-31T11:09:27;20.60;99.90
10443;DHT22;5269;51.146;16.986;2023-07-31T11:11:54;20.60;99.90
10443;DHT22;5269;51.146;16.986;2023-07-31T11:14:22;20.60;99.90
10443;DHT22;5269;51.146;16.986;2023-07-31T11:16:49;20.70;99.90
10443;DHT22;5269;51.146;16.986;2023-07-31T11:19:23;20.70;99.90
10443;DHT22;5269;51.146;16.986;2023-07-31T11:21:52;20.80;99.90
10443;DHT22;5269;51.146;16.986;2023-07-31T11:24:19;21.10;69.00
10443;DHT22;5269;51.146;16.986;2023-07-31T11:26:50;21.40;77.90
10443;DHT22;5269;51.146;16.986;2023-07-31T11:29:22;21.50;1.00
10443;DHT22;5269;51.146;16.986;2023-07-31T11:31:53;21.30;1.00
10443;DHT22;5269;51.146;16.986;2023-07-31T11:34:20;21.40;1.00
10443;DHT22;5269;51.146;16.986;2023-07-31T11:36:57;21.50;1.00
10443;DHT22;5269;51.146;16.986;2023-07-31T11:39:24;21.50;1.00
10443;DHT22;5269;51.146;16.986;2023-07-31T11:41:59;21.60;1.00
10443;DHT22;5269;51.146;16.986;2023-07-31T11:44:37;21.80;1.00
10443;DHT22;5269;51.146;16.986;2023-07-31T11:47:13;22.00;1.00
10443;DHT22;5269;51.146;16.986;2023-07-31T11:49:40;21.90;1.00
10443;DHT22;5269;51.146;16.986;2023-07-31T11:52:08;22.10;1.00
10443;DHT22;5269;51.146;16.986;2023-07-31T11:54:36;22.20;1.00
10443;DHT22;5269;51.146;16.986;2023-07-31T11:57:03;22.50;1.00
10443;DHT22;5269;51.146;16.986;2023-07-31T11:59:31;22.60;1.00
10443;DHT22;5269;51.146;16.986;2023-07-31T12:02:01;22.90;1.00
10443;DHT22;5269;51.146;16.986;2023-07-31T12:04:28;22.70;1.00
10443;DHT22;5269;51.146;16.986;2023-07-31T12:06:55;22.80;1.00
10443;DHT22;5269;51.146;16.986;2023-07-31T12:09:24;22.90;1.00
10443;DHT22;5269;51.146;16.986;2023-07-31T12:11:52;23.20;1.00
10443;DHT22;5269;51.146;16.986;2023-07-31T12:14:20;23.00;1.00
10443;DHT22;5269;51.146;16.986;2023-07-31T12:16:47;22.70;1.00
10443;DHT22;5269;51.146;16.986;2023-07-31T12:19:14;22.30;1.00
10443;DHT22;5269;51.146;16.986;2023-07-31T12:21:41;22.30;1.00
10443;DHT22;5269;51.146;16.986;2023-07-31T12:24:08;22.50;1.00
10443;DHT22;5269;51.146;16.986;2023-07-31T12:26:38;22.30;1.00
10443;DHT22;5269;51.146;16.986;2023-07-31T12:29:07;22.60;1.00
10443;DHT22;5269;51.146;16.986;2023-07-31T12:31:34;22.30;1.00
10443;DHT22;5269;51.146;16.986;2023-07-31T12:34:02;22.30;1.00
10443;DHT22;5269;51.146;16.986;2023-07-31T12:36:29;22.50;1.00
10443;DHT22;5269;51.146;16.986;2023-07-31T12:39:01;22.40;1.00
10443;DHT22;5269;51.146;16.986;2023-07-31T12:41:30;22.30;1.00
10443;DHT22;5269;51.146;16.986;2023-07-31T12:44:01;22.40;1.00
10443;DHT22;5269;51.146;16.986;2023-07-31T12:46:28;22.60;1.00
10443;DHT22;5269;51.146;16.986;2023-07-31T12:48:55;22.70;1.00
10443;DHT22;5269;51.146;16.986;2023-07-31T12:51:22;22.60;1.00
10443;DHT22;5269;51.146;16.986;2023-07-31T12:53:49;22.60;1.00
10443;DHT22;5269;51.146;16.986;2023-07-31T12:56:16;22.40;1.00
10443;DHT22;5269;51.146;16.986;2023-07-31T12:58:43;22.60;1.00
10443;DHT22;5269;51.146;16.986;2023-07-31T13:01:13;22.60;1.00
10443;DHT22;5269;51.146;16.986;2023-07-31T13:03:40;22.60;1.00
10443;DHT22;5269;51.146;16.986;2023-07-31T13:06:07;22.80;1.00
10443;DHT22;5269;51.146;16.986;2023-07-31T13:08:34;23.00;1.00
10443;DHT22;5269;51.146;16.986;2023-07-31T13:11:01;22.80;1.00
10443;DHT22;5269;51.146;16.986;2023-07-31T13:13:28;22.80;1.00
10443;DHT22;5269;51.146;16.986;2023-07-31T13:15:57;22.70;1.00
10443;DHT22;5269;51.146;16.986;2023-07-31T13:18:25;22.80;1.00
10443;DHT22;5269;51.146;16.986;2023-07-31T13:20:54;22.80;1.00
10443;DHT22;5269;51.146;16.986;2023-07-31T13:23:21;22.70;1.00
10443;DHT22;5269;51.146;16.986;2023-07-31T13:25:51;22.70;1.00
10443;DHT22;5269;51.146;16.986;2023-07-31T13:28:19;22.70;1.00
10443;DHT22;5269;51.146;16.986;2023-07-31T13:30:46;22.80;1.00
10443;DHT22;5269;51.146;16.986;2023-07-31T13:33:13;23.00;1.00
10443;DHT22;5269;51.146;16.986;2023-07-31T13:35:41;23.10;1.00
10443;DHT22;5269;51.146;16.986;2023-07-31T13:38:08;23.30;1.00
10443;DHT22;5269;51.146;16.986;2023-07-31T13:40:35;23.50;1.00
10443;DHT22;5269;51.146;16.986;2023-07-31T13:43:08;23.50;1.00
10443;DHT22;5269;51.146;16.986;2023-07-31T13:45:35;23.60;1.00
10443;DHT22;5269;51.146;16.986;2023-07-31T13:48:01;23.50;1.00
10443;DHT22;5269;51.146;16.986;2023-07-31T13:50:30;23.50;1.00
10443;DHT22;5269;51.146;16.986;2023-07-31T13:52:59;23.20;1.00
10443;DHT22;5269;51.146;16.986;2023-07-31T13:55:25;23.30;1.00
10443;DHT22;5269;51.146;16.986;2023-07-31T13:57:52;23.30;1.00
10443;DHT22;5269;51.146;16.986;2023-07-31T14:00:19;23.20;1.00
10443;DHT22;5269;51.146;16.986;2023-07-31T14:02:46;23.40;1.00
10443;DHT22;5269;51.146;16.986;2023-07-31T14:05:15;23.50;1.00
10443;DHT22;5269;51.146;16.986;2023-07-31T14:07:42;23.50;1.00
10443;DHT22;5269;51.146;16.986;2023-07-31T14:10:10;23.50;1.00
10443;DHT22;5269;51.146;16.986;2023-07-31T14:12:37;23.70;1.00
10443;DHT22;5269;51.146;16.986;2023-07-31T14:15:05;23.60;1.00
10443;DHT22;5269;51.146;16.986;2023-07-31T14:17:32;23.70;1.00
10443;DHT22;5269;51.146;16.986;2023-07-31T14:19:59;23.90;1.00
10443;DHT22;5269;51.146;16.986;2023-07-31T14:22:29;24.00;1.00
10443;DHT22;5269;51.146;16.986;2023-07-31T14:24:56;24.40;1.00
10443;DHT22;5269;51.146;16.986;2023-07-31T14:27:24;24.40;1.00
10443;DHT22;5269;51.146;16.986;2023-07-31T14:29:51;24.40;1.00
10443;DHT22;5269;51.146;16.986;2023-07-31T14:32:18;24.20;1.00
10443;DHT22;5269;51.146;16.986;2023-07-31T14:34:45;23.90;1.00
10443;DHT22;5269;51.146;16.986;2023-07-31T14:37:12;23.80;1.00
10443;DHT22;5269;51.146;16.986;2023-07-31T14:39:39;23.90;1.00
10443;DHT22;5269;51.146;16.986;2023-07-31T14:42:06;23.70;1.00
10443;DHT22;5269;51.146;16.986;2023-07-31T14:44:34;23.60;1.00
10443;DHT22;5269;51.146;16.986;2023-07-31T14:47:01;23.40;1.00
10443;DHT22;5269;51.146;16.986;2023-07-31T14:49:28;23.20;1.00
10443;DHT22;5269;51.146;16.986;2023-07-31T14:51:55;23.10;1.00
10443;DHT22;5269;51.146;16.986;2023-07-31T14:54:22;22.90;1.00
10443;DHT22;5269;51.146;16.986;2023-07-31T14:56:49;23.10;1.00
10443;DHT22;5269;51.146;16.986;2023-07-31T14:59:16;23.10;1.00
10443;DHT22;5269;51.146;16.986;2023-07-31T15:01:44;23.40;1.00
10443;DHT22;5269;51.146;16.986;2023-07-31T15:04:11;23.70;1.00
10443;DHT22;5269;51.146;16.986;2023-07-31T15:06:37;24.10;1.00
10443;DHT22;5269;51.146;16.986;2023-07-31T15:09:06;24.30;1.00
10443;DHT22;5269;51.146;16.986;2023-07-31T15:11:32;24.20;1.00
10443;DHT22;5269;51.146;16.986;2023-07-31T15:13:59;24.40;1.00
10443;DHT22;5269;51.146;16.986;2023-07-31T15:16:26;24.30;1.00
10443;DHT22;5269;51.146;16.986;2023-07-31T15:18:56;24.30;1.00
10443;DHT22;5269;51.146;16.986;2023-07-31T15:21:23;24.20;1.00
10443;DHT22;5269;51.146;16.986;2023-07-31T15:23:49;24.20;1.00
10443;DHT22;5269;51.146;16.986;2023-07-31T15:26:16;24.20;1.00
10443;DHT22;5269;51.146;16.986;2023-07-31T15:28:48;24.10;1.00
10443;DHT22;5269;51.146;16.986;2023-07-31T15:31:15;24.00;1.00
10443;DHT22;5269;51.146;16.986;2023-07-31T15:33:42;24.00;1.00
10443;DHT22;5269;51.146;16.986;2023-07-31T15:36:10;24.30;1.00
10443;DHT22;5269;51.146;16.986;2023-07-31T15:38:37;24.30;1.00
10443;DHT22;5269;51.146;16.986;2023-07-31T15:41:04;24.30;1.00
10443;DHT22;5269;51.146;16.986;2023-07-31T15:43:32;24.20;1.00